sensor_id;sensor_type;location;lat;lon;timestamp;P1;durP1;ratioP1;P2;durP2;ratioP2
39860;SDS011;25529;49.346;20.886;2022-07-22T05:53:25;19.80;;;7.03;;
39860;SDS011;25529;49.346;20.886;2022-07-22T05:55:54;24.25;;;9.25;;
39860;SDS011;25529;49.346;20.886;2022-07-22T06:01:15;21.60;;;8.05;;
39860;SDS011;25529;49.346;20.886;2022-07-22T06:03:44;20.42;;;8.20;;
39860;SDS011;25529;49.346;20.886;2022-07-22T06:06:49;20.73;;;7.47;;
39860;SDS011;25529;49.346;20.886;2022-07-22T06:14:42;18.15;;;7.10;;
39860;SDS011;25529;49.346;20.886;2022-07-22T06:22:40;25.60;;;8.75;;
39860;SDS011;25529;49.346;20.886;2022-07-22T06:36:37;22.88;;;10.65;;
39860;SDS011;25529;49.346;20.886;2022-07-22T07:43:35;19.20;;;7.28;;
39860;SDS011;25529;49.346;20.886;2022-07-22T08:35:55;19.00;;;7.40;;
39860;SDS011;25529;49.346;20.886;2022-07-22T08:43:29;19.48;;;7.47;;
39860;SDS011;25529;49.346;20.886;2022-07-22T08:46:48;20.63;;;7.30;;
39860;SDS011;25529;49.346;20.886;2022-07-22T08:48:44;22.02;;;7.50;;
39860;SDS011;25529;49.346;20.886;2022-07-22T08:51:11;19.77;;;7.43;;
39860;SDS011;25529;49.346;20.886;2022-07-22T08:53:37;20.45;;;7.65;;
39860;SDS011;25529;49.346;20.886;2022-07-22T08:56:05;21.42;;;7.95;;
39860;SDS011;25529;49.346;20.886;2022-07-22T08:58:31;19.45;;;7.20;;
39860;SDS011;25529;49.346;20.886;2022-07-22T09:01:13;21.83;;;7.50;;
39860;SDS011;25529;49.346;20.886;2022-07-22T09:03:50;18.10;;;7.20;;
39860;SDS011;25529;49.346;20.886;2022-07-22T09:06:17;19.63;;;7.05;;
39860;SDS011;25529;49.346;20.886;2022-07-22T09:21:15;21.23;;;7.40;;
39860;SDS011;25529;49.346;20.886;2022-07-22T09:24:02;21.00;;;7.50;;
39860;SDS011;25529;49.346;20.886;2022-07-22T09:32:07;19.05;;;7.07;;
39860;SDS011;25529;49.346;20.886;2022-07-22T09:34:32;20.65;;;7.53;;
39860;SDS011;25529;49.346;20.886;2022-07-22T09:36:59;21.60;;;7.60;;
39860;SDS011;25529;49.346;20.886;2022-07-22T09:39:29;21.83;;;8.55;;
39860;SDS011;25529;49.346;20.886;2022-07-22T09:41:59;20.77;;;7.90;;
39860;SDS011;25529;49.346;20.886;2022-07-22T09:44:25;21.15;;;8.30;;
39860;SDS011;25529;49.346;20.886;2022-07-22T09:46:50;24.10;;;8.13;;
39860;SDS011;25529;49.346;20.886;2022-07-22T09:51:56;22.33;;;7.50;;
39860;SDS011;25529;49.346;20.886;2022-07-22T09:54:22;21.58;;;8.05;;
39860;SDS011;25529;49.346;20.886;2022-07-22T09:56:49;21.77;;;8.35;;
39860;SDS011;25529;49.346;20.886;2022-07-22T09:59:14;18.98;;;7.30;;
39860;SDS011;25529;49.346;20.886;2022-07-22T10:04:42;26.67;;;8.38;;
39860;SDS011;25529;49.346;20.886;2022-07-22T10:07:10;24.55;;;8.95;;
39860;SDS011;25529;49.346;20.886;2022-07-22T10:09:36;20.90;;;8.50;;
39860;SDS011;25529;49.346;20.886;2022-07-22T10:12:02;22.33;;;9.40;;
39860;SDS011;25529;49.346;20.886;2022-07-22T10:14:31;23.75;;;9.98;;
39860;SDS011;25529;49.346;20.886;2022-07-22T10:20:02;21.40;;;8.23;;
39860;SDS011;25529;49.346;20.886;2022-07-22T10:25:12;21.15;;;7.72;;
39860;SDS011;25529;49.346;20.886;2022-07-22T10:30:43;23.88;;;9.10;;
39860;SDS011;25529;49.346;20.886;2022-07-22T10:41:40;24.50;;;10.45;;
39860;SDS011;25529;49.346;20.886;2022-07-22T10:44:08;22.17;;;8.95;;
39860;SDS011;25529;49.346;20.886;2022-07-22T10:52:46;20.13;;;8.43;;
39860;SDS011;25529;49.346;20.886;2022-07-22T11:01:07;21.42;;;8.25;;
39860;SDS011;25529;49.346;20.886;2022-07-22T11:03:34;22.88;;;9.25;;
39860;SDS011;25529;49.346;20.886;2022-07-22T11:08:45;23.40;;;9.05;;
39860;SDS011;25529;49.346;20.886;2022-07-22T11:11:11;23.15;;;8.63;;
39860;SDS011;25529;49.346;20.886;2022-07-22T11:13:40;22.90;;;8.63;;
39860;SDS011;25529;49.346;20.886;2022-07-22T11:16:24;24.40;;;9.13;;
39860;SDS011;25529;49.346;20.886;2022-07-22T11:18:54;23.83;;;8.80;;
39860;SDS011;25529;49.346;20.886;2022-07-22T11:21:25;22.70;;;8.45;;
39860;SDS011;25529;49.346;20.886;2022-07-22T11:23:56;23.83;;;9.05;;
39860;SDS011;25529;49.346;20.886;2022-07-22T11:26:25;22.30;;;9.25;;
39860;SDS011;25529;49.346;20.886;2022-07-22T11:28:56;28.02;;;13.32;;
39860;SDS011;25529;49.346;20.886;2022-07-22T11:34:35;25.45;;;11.38;;
39860;SDS011;25529;49.346;20.886;2022-07-22T11:37:01;23.38;;;8.95;;
39860;SDS011;25529;49.346;20.886;2022-07-22T11:39:28;25.17;;;10.07;;
39860;SDS011;25529;49.346;20.886;2022-07-22T11:41:56;22.20;;;9.82;;
39860;SDS011;25529;49.346;20.886;2022-07-22T11:44:23;25.70;;;9.25;;
39860;SDS011;25529;49.346;20.886;2022-07-22T11:46:51;24.35;;;9.57;;
39860;SDS011;25529;49.346;20.886;2022-07-22T11:49:19;23.48;;;10.27;;
39860;SDS011;25529;49.346;20.886;2022-07-22T11:51:44;23.08;;;9.50;;
39860;SDS011;25529;49.346;20.886;2022-07-22T11:54:10;23.88;;;9.75;;
39860;SDS011;25529;49.346;20.886;2022-07-22T11:56:36;22.55;;;9.73;;
39860;SDS011;25529;49.346;20.886;2022-07-22T11:59:02;25.20;;;10.82;;
39860;SDS011;25529;49.346;20.886;2022-07-22T12:01:33;22.45;;;10.27;;
39860;SDS011;25529;49.346;20.886;2022-07-22T12:04:04;24.52;;;10.27;;
39860;SDS011;25529;49.346;20.886;2022-07-22T12:06:52;23.17;;;9.70;;
39860;SDS011;25529;49.346;20.886;2022-07-22T12:12:06;24.35;;;11.57;;
39860;SDS011;25529;49.346;20.886;2022-07-22T12:14:33;24.60;;;10.85;;
39860;SDS011;25529;49.346;20.886;2022-07-22T12:17:09;23.80;;;9.73;;
39860;SDS011;25529;49.346;20.886;2022-07-22T12:29:27;24.23;;;10.13;;
39860;SDS011;25529;49.346;20.886;2022-07-22T12:44:30;24.70;;;10.65;;
39860;SDS011;25529;49.346;20.886;2022-07-22T13:18:14;24.20;;;10.80;;
39860;SDS011;25529;49.346;20.886;2022-07-22T13:30:31;23.77;;;10.15;;
39860;SDS011;25529;49.346;20.886;2022-07-22T13:33:28;26.27;;;10.32;;
39860;SDS011;25529;49.346;20.886;2022-07-22T13:39:36;23.85;;;11.02;;
39860;SDS011;25529;49.346;20.886;2022-07-22T13:45:29;26.20;;;8.35;;
39860;SDS011;25529;49.346;20.886;2022-07-22T13:51:21;20.98;;;6.53;;
39860;SDS011;25529;49.346;20.886;2022-07-22T14:37:29;18.73;;;5.90;;
39860;SDS011;25529;49.346;20.886;2022-07-22T14:40:17;17.92;;;6.45;;
39860;SDS011;25529;49.346;20.886;2022-07-22T14:43:04;17.52;;;5.75;;
39860;SDS011;25529;49.346;20.886;2022-07-22T14:48:36;19.60;;;6.43;;
39860;SDS011;25529;49.346;20.886;2022-07-22T14:54:09;22.83;;;6.55;;
39860;SDS011;25529;49.346;20.886;2022-07-22T14:56:41;22.88;;;6.80;;
39860;SDS011;25529;49.346;20.886;2022-07-22T14:59:13;22.63;;;7.20;;
39860;SDS011;25529;49.346;20.886;2022-07-22T15:02:01;21.20;;;6.85;;
39860;SDS011;25529;49.346;20.886;2022-07-22T15:04:40;20.58;;;7.10;;
39860;SDS011;25529;49.346;20.886;2022-07-22T15:07:29;22.10;;;7.07;;
39860;SDS011;25529;49.346;20.886;2022-07-22T15:10:23;27.73;;;8.10;;
39860;SDS011;25529;49.346;20.886;2022-07-22T15:13:14;23.02;;;7.18;;
39860;SDS011;25529;49.346;20.886;2022-07-22T15:16:02;19.98;;;7.22;;
39860;SDS011;25529;49.346;20.886;2022-07-22T15:18:31;21.25;;;7.40;;
39860;SDS011;25529;49.346;20.886;2022-07-22T15:21:08;18.95;;;6.82;;
39860;SDS011;25529;49.346;20.886;2022-07-22T15:26:40;20.60;;;7.57;;
39860;SDS011;25529;49.346;20.886;2022-07-22T15:51:29;19.05;;;7.53;;
39860;SDS011;25529;49.346;20.886;2022-07-22T15:57:26;20.73;;;7.68;;
39860;SDS011;25529;49.346;20.886;2022-07-22T16:12:17;20.77;;;7.47;;
39860;SDS011;25529;49.346;20.886;2022-07-22T16:18:30;20.10;;;7.45;;
39860;SDS011;25529;49.346;20.886;2022-07-22T16:30:55;22.42;;;7.95;;
39860;SDS011;25529;49.346;20.886;2022-07-22T16:42:37;22.15;;;8.02;;
39860;SDS011;25529;49.346;20.886;2022-07-22T16:48:20;22.17;;;9.10;;
39860;SDS011;25529;49.346;20.886;2022-07-22T16:54:14;22.90;;;9.23;;
39860;SDS011;25529;49.346;20.886;2022-07-22T16:57:20;20.67;;;8.52;;
39860;SDS011;25529;49.346;20.886;2022-07-22T16:59:51;25.67;;;9.85;;
39860;SDS011;25529;49.346;20.886;2022-07-22T17:02:50;21.10;;;8.95;;
39860;SDS011;25529;49.346;20.886;2022-07-22T17:18:19;22.83;;;9.38;;
39860;SDS011;25529;49.346;20.886;2022-07-22T17:34:05;22.88;;;10.07;;
39860;SDS011;25529;49.346;20.886;2022-07-22T17:39:36;22.80;;;10.20;;
39860;SDS011;25529;49.346;20.886;2022-07-22T17:42:01;22.20;;;9.73;;
39860;SDS011;25529;49.346;20.886;2022-07-22T17:44:27;22.92;;;9.30;;
39860;SDS011;25529;49.346;20.886;2022-07-22T17:46:52;21.50;;;9.10;;
39860;SDS011;25529;49.346;20.886;2022-07-22T17:49:18;21.98;;;8.75;;
39860;SDS011;25529;49.346;20.886;2022-07-22T17:51:43;22.05;;;8.40;;
39860;SDS011;25529;49.346;20.886;2022-07-22T17:54:09;23.88;;;10.18;;
39860;SDS011;25529;49.346;20.886;2022-07-22T17:56:34;25.60;;;10.50;;
39860;SDS011;25529;49.346;20.886;2022-07-22T18:02:02;28.08;;;15.00;;
39860;SDS011;25529;49.346;20.886;2022-07-22T18:04:28;33.70;;;19.33;;
39860;SDS011;25529;49.346;20.886;2022-07-22T18:06:53;32.17;;;18.23;;
39860;SDS011;25529;49.346;20.886;2022-07-22T18:09:21;30.17;;;15.38;;
39860;SDS011;25529;49.346;20.886;2022-07-22T18:11:47;29.05;;;13.75;;
39860;SDS011;25529;49.346;20.886;2022-07-22T18:14:13;25.10;;;11.57;;
39860;SDS011;25529;49.346;20.886;2022-07-22T18:16:39;25.67;;;9.98;;
39860;SDS011;25529;49.346;20.886;2022-07-22T18:19:06;21.30;;;9.30;;
39860;SDS011;25529;49.346;20.886;2022-07-22T18:21:38;22.90;;;10.20;;
39860;SDS011;25529;49.346;20.886;2022-07-22T18:24:04;29.27;;;11.05;;
39860;SDS011;25529;49.346;20.886;2022-07-22T18:26:31;22.35;;;8.80;;
39860;SDS011;25529;49.346;20.886;2022-07-22T18:28:56;24.90;;;9.80;;
39860;SDS011;25529;49.346;20.886;2022-07-22T18:31:22;23.38;;;9.57;;
39860;SDS011;25529;49.346;20.886;2022-07-22T18:33:47;23.35;;;9.63;;
39860;SDS011;25529;49.346;20.886;2022-07-22T18:36:13;22.52;;;8.57;;
39860;SDS011;25529;49.346;20.886;2022-07-22T18:41:41;26.52;;;11.23;;
39860;SDS011;25529;49.346;20.886;2022-07-22T18:44:07;23.35;;;10.10;;
39860;SDS011;25529;49.346;20.886;2022-07-22T18:46:32;26.27;;;10.20;;
39860;SDS011;25529;49.346;20.886;2022-07-22T18:48:58;25.80;;;11.15;;
39860;SDS011;25529;49.346;20.886;2022-07-22T18:51:23;27.08;;;11.85;;
39860;SDS011;25529;49.346;20.886;2022-07-22T18:53:48;28.45;;;11.18;;
39860;SDS011;25529;49.346;20.886;2022-07-22T18:56:14;22.08;;;9.70;;
39860;SDS011;25529;49.346;20.886;2022-07-22T19:04:07;24.30;;;8.98;;
39860;SDS011;25529;49.346;20.886;2022-07-22T19:06:32;21.48;;;8.70;;
39860;SDS011;25529;49.346;20.886;2022-07-22T19:08:58;20.88;;;8.82;;
39860;SDS011;25529;49.346;20.886;2022-07-22T19:11:23;25.33;;;9.93;;
39860;SDS011;25529;49.346;20.886;2022-07-22T19:13:49;24.15;;;9.30;;
39860;SDS011;25529;49.346;20.886;2022-07-22T19:16:15;22.02;;;9.48;;
39860;SDS011;25529;49.346;20.886;2022-07-22T19:18:41;22.98;;;9.95;;
39860;SDS011;25529;49.346;20.886;2022-07-22T19:21:06;25.52;;;11.68;;
39860;SDS011;25529;49.346;20.886;2022-07-22T19:23:32;26.35;;;10.93;;
39860;SDS011;25529;49.346;20.886;2022-07-22T19:25:57;23.83;;;10.90;;
39860;SDS011;25529;49.346;20.886;2022-07-22T19:28:23;24.23;;;10.23;;
39860;SDS011;25529;49.346;20.886;2022-07-22T19:30:48;24.88;;;11.38;;
39860;SDS011;25529;49.346;20.886;2022-07-22T19:33:14;24.38;;;10.73;;
39860;SDS011;25529;49.346;20.886;2022-07-22T19:35:39;21.85;;;9.63;;
39860;SDS011;25529;49.346;20.886;2022-07-22T19:38:08;21.63;;;9.45;;
39860;SDS011;25529;49.346;20.886;2022-07-22T19:40:33;23.48;;;9.38;;
39860;SDS011;25529;49.346;20.886;2022-07-22T19:43:02;21.67;;;9.32;;
39860;SDS011;25529;49.346;20.886;2022-07-22T19:45:28;23.63;;;10.05;;
39860;SDS011;25529;49.346;20.886;2022-07-22T19:51:01;22.63;;;10.00;;
39860;SDS011;25529;49.346;20.886;2022-07-22T19:56:35;24.02;;;10.10;;
39860;SDS011;25529;49.346;20.886;2022-07-22T19:59:06;29.25;;;14.18;;
39860;SDS011;25529;49.346;20.886;2022-07-22T20:01:33;25.02;;;11.73;;
39860;SDS011;25529;49.346;20.886;2022-07-22T20:03:58;24.38;;;12.32;;
39860;SDS011;25529;49.346;20.886;2022-07-22T20:06:24;26.58;;;12.57;;
39860;SDS011;25529;49.346;20.886;2022-07-22T20:08:50;27.15;;;12.40;;
39860;SDS011;25529;49.346;20.886;2022-07-22T20:11:15;26.00;;;11.57;;
39860;SDS011;25529;49.346;20.886;2022-07-22T20:13:41;24.83;;;10.85;;
39860;SDS011;25529;49.346;20.886;2022-07-22T20:16:07;26.90;;;14.02;;
39860;SDS011;25529;49.346;20.886;2022-07-22T20:18:32;25.92;;;13.65;;
39860;SDS011;25529;49.346;20.886;2022-07-22T20:20:58;30.45;;;15.52;;
39860;SDS011;25529;49.346;20.886;2022-07-22T20:23:23;26.27;;;14.13;;
39860;SDS011;25529;49.346;20.886;2022-07-22T20:25:49;26.52;;;12.73;;
39860;SDS011;25529;49.346;20.886;2022-07-22T20:28:15;28.60;;;13.20;;
39860;SDS011;25529;49.346;20.886;2022-07-22T20:30:41;25.48;;;13.75;;
39860;SDS011;25529;49.346;20.886;2022-07-22T20:33:07;30.38;;;15.50;;
39860;SDS011;25529;49.346;20.886;2022-07-22T20:35:32;29.65;;;15.68;;
39860;SDS011;25529;49.346;20.886;2022-07-22T20:37:58;28.00;;;13.15;;
39860;SDS011;25529;49.346;20.886;2022-07-22T20:40:26;25.05;;;11.55;;
39860;SDS011;25529;49.346;20.886;2022-07-22T20:43:07;24.30;;;11.13;;
39860;SDS011;25529;49.346;20.886;2022-07-22T20:45:36;29.48;;;16.05;;
39860;SDS011;25529;49.346;20.886;2022-07-22T20:53:33;25.17;;;12.95;;
39860;SDS011;25529;49.346;20.886;2022-07-22T20:56:01;27.95;;;12.77;;
39860;SDS011;25529;49.346;20.886;2022-07-22T20:58:27;28.83;;;15.75;;
39860;SDS011;25529;49.346;20.886;2022-07-22T21:00:52;31.77;;;15.38;;
39860;SDS011;25529;49.346;20.886;2022-07-22T21:03:20;25.67;;;12.18;;
39860;SDS011;25529;49.346;20.886;2022-07-22T21:06:05;24.60;;;10.90;;
39860;SDS011;25529;49.346;20.886;2022-07-22T21:11:20;22.65;;;10.35;;
39860;SDS011;25529;49.346;20.886;2022-07-22T21:13:47;25.73;;;13.35;;
39860;SDS011;25529;49.346;20.886;2022-07-22T21:16:14;27.63;;;14.10;;
39860;SDS011;25529;49.346;20.886;2022-07-22T21:18:40;25.45;;;13.35;;
39860;SDS011;25529;49.346;20.886;2022-07-22T21:21:06;28.60;;;12.80;;
39860;SDS011;25529;49.346;20.886;2022-07-22T21:23:32;26.50;;;12.10;;
39860;SDS011;25529;49.346;20.886;2022-07-22T21:26:01;23.70;;;11.10;;
39860;SDS011;25529;49.346;20.886;2022-07-22T21:28:26;25.02;;;10.48;;
39860;SDS011;25529;49.346;20.886;2022-07-22T21:30:56;23.77;;;9.98;;
39860;SDS011;25529;49.346;20.886;2022-07-22T21:33:28;23.20;;;9.60;;
39860;SDS011;25529;49.346;20.886;2022-07-22T21:35:54;21.67;;;9.27;;
39860;SDS011;25529;49.346;20.886;2022-07-22T21:38:22;20.65;;;8.73;;
39860;SDS011;25529;49.346;20.886;2022-07-22T21:43:56;20.42;;;8.70;;
39860;SDS011;25529;49.346;20.886;2022-07-22T21:46:22;21.58;;;9.32;;
39860;SDS011;25529;49.346;20.886;2022-07-22T21:48:49;21.35;;;8.30;;
39860;SDS011;25529;49.346;20.886;2022-07-22T21:51:16;19.17;;;7.93;;
39860;SDS011;25529;49.346;20.886;2022-07-22T21:56:49;18.55;;;7.20;;
39860;SDS011;25529;49.346;20.886;2022-07-22T21:59:22;18.42;;;7.38;;
39860;SDS011;25529;49.346;20.886;2022-07-22T22:04:51;19.17;;;7.18;;
39860;SDS011;25529;49.346;20.886;2022-07-22T22:07:16;20.48;;;7.85;;
39860;SDS011;25529;49.346;20.886;2022-07-22T22:09:42;19.48;;;7.65;;
39860;SDS011;25529;49.346;20.886;2022-07-22T22:12:17;18.05;;;7.32;;
39860;SDS011;25529;49.346;20.886;2022-07-22T22:14:43;19.73;;;7.53;;
39860;SDS011;25529;49.346;20.886;2022-07-22T22:17:08;19.15;;;7.80;;
39860;SDS011;25529;49.346;20.886;2022-07-22T22:22:36;19.48;;;7.95;;
39860;SDS011;25529;49.346;20.886;2022-07-22T22:28:05;21.38;;;8.23;;
39860;SDS011;25529;49.346;20.886;2022-07-22T22:33:33;18.55;;;7.40;;
39860;SDS011;25529;49.346;20.886;2022-07-22T22:38:44;19.25;;;7.75;;
39860;SDS011;25529;49.346;20.886;2022-07-22T22:41:09;19.60;;;8.55;;
39860;SDS011;25529;49.346;20.886;2022-07-22T22:59:53;23.23;;;9.43;;
39860;SDS011;25529;49.346;20.886;2022-07-22T23:02:19;22.63;;;9.80;;
39860;SDS011;25529;49.346;20.886;2022-07-22T23:10:51;23.83;;;10.65;;
39860;SDS011;25529;49.346;20.886;2022-07-22T23:13:16;20.80;;;9.27;;
39860;SDS011;25529;49.346;20.886;2022-07-22T23:15:41;21.50;;;9.50;;
39860;SDS011;25529;49.346;20.886;2022-07-22T23:20:54;23.52;;;7.93;;
39860;SDS011;25529;49.346;20.886;2022-07-22T23:29:25;22.75;;;10.00;;
39860;SDS011;25529;49.346;20.886;2022-07-22T23:34:45;21.58;;;9.38;;
39860;SDS011;25529;49.346;20.886;2022-07-22T23:37:11;22.02;;;10.00;;
39860;SDS011;25529;49.346;20.886;2022-07-22T23:39:36;23.77;;;10.25;;
39860;SDS011;25529;49.346;20.886;2022-07-22T23:42:02;21.05;;;8.82;;
39860;SDS011;25529;49.346;20.886;2022-07-22T23:50:22;18.13;;;7.75;;
39860;SDS011;25529;49.346;20.886;2022-07-22T23:52:48;18.55;;;7.63;;
39860;SDS011;25529;49.346;20.886;2022-07-22T23:55:13;20.30;;;8.02;;
